Inversion Research: Below Escarpment

*Note: All times are displayed in the local standard time of the station location.
**Rain - Equipment is designed to accurately record liquid precipitation; under conditions when precipitation is not in liquid form, the data displayed may not properly reflect rainfall values.

Date Max Temp
(°C)
Min Temp
(°C)
Avg Temp
(°C)
Rain (mm) Avg RH (%)
Mon, Apr 23, 2018 19.3 0.0 9.5 - 63.8
Sun, Apr 22, 2018 16.7 -2.3 8.0 - 60.5
Sat, Apr 21, 2018 14.1 -2.4 6.1 - 63.2
Fri, Apr 20, 2018 8.1 -0.7 3.2 - 67.7
Thu, Apr 19, 2018 4.3 1.2 2.5 - 76.9
Wed, Apr 18, 2018 4.7 1.1 2.7 - 86.6
Tue, Apr 17, 2018 1.7 -0.7 1.0 - 84.7
DateTime Avg Temp (°C) Rain (mm) RH (%)
Tue, Apr 24, 2018 18:00 13.5 - 90.0
Tue, Apr 24, 2018 17:00 14.3 - 72.5
Tue, Apr 24, 2018 16:00 13.0 - 68.5
Tue, Apr 24, 2018 15:00 13.1 - 67.8
Tue, Apr 24, 2018 14:00 16.7 - 51.5
Tue, Apr 24, 2018 13:00 18.8 - 47.5
Tue, Apr 24, 2018 12:00 16.9 - 49.3
Tue, Apr 24, 2018 11:00 15.7 - 61.8
Tue, Apr 24, 2018 10:00 14.9 - 66.3
Tue, Apr 24, 2018 09:00 14.6 - 63.5
Tue, Apr 24, 2018 08:00 13.4 - 68.5
Tue, Apr 24, 2018 07:00 12.0 - 73.0
Tue, Apr 24, 2018 06:00 10.9 - 78.0
Tue, Apr 24, 2018 05:00 6.0 - 96.3
Tue, Apr 24, 2018 04:00 4.9 - 97.5
Tue, Apr 24, 2018 03:00 5.3 - 91.3
Tue, Apr 24, 2018 02:00 5.7 - 83.8
Tue, Apr 24, 2018 01:00 5.5 - 87.8
Tue, Apr 24, 2018 00:00 5.7 - 86.5
Mon, Apr 23, 2018 23:00 6.1 - 83.0
Mon, Apr 23, 2018 22:00 7.0 - 78.3
Mon, Apr 23, 2018 21:00 8.2 - 70.0
Mon, Apr 23, 2018 20:00 11.2 - 55.8
Mon, Apr 23, 2018 19:00 14.2 - 47.5
Mon, Apr 23, 2018 18:00 16.2 - 43.3
Mon, Apr 23, 2018 17:00 18.3 - 34.8
Mon, Apr 23, 2018 16:00 18.7 - 32.3
Mon, Apr 23, 2018 15:00 17.4 - 36.3
Mon, Apr 23, 2018 14:00 16.5 - 40.5
Mon, Apr 23, 2018 13:00 16.1 - 45.3
Mon, Apr 23, 2018 12:00 17.4 - 33.8
Mon, Apr 23, 2018 11:00 16.0 - 31.8
Mon, Apr 23, 2018 10:00 13.8 - 38.0
Mon, Apr 23, 2018 09:00 10.1 - 55.5
Mon, Apr 23, 2018 08:00 5.7 - 73.5
Mon, Apr 23, 2018 07:00 0.7 - 94.3
Mon, Apr 23, 2018 06:00 0.8 - 86.3
Mon, Apr 23, 2018 05:00 1.4 - 96.3
Mon, Apr 23, 2018 04:00 0.4 - 97.8
Mon, Apr 23, 2018 03:00 1.2 - 97.5
Mon, Apr 23, 2018 02:00 2.0 - 91.5
Mon, Apr 23, 2018 01:00 3.0 - 81.0
Mon, Apr 23, 2018 00:00 5.1 - 73.8
Sun, Apr 22, 2018 23:00 5.7 - 73.5
Sun, Apr 22, 2018 22:00 7.6 - 66.5
Sun, Apr 22, 2018 21:00 10.7 - 48.0
Sun, Apr 22, 2018 20:00 14.6 - 33.3
Sun, Apr 22, 2018 19:00 16.2 - 25.5


asterix Register now to access more data! asterix